Yellowstone Natl Park, WY

9:46 PM MST on February 21, 2018 (GMT -0700)
West Yellowstone | | Change Station

Elev 6650 ft 44.69 °N, 111.12 °W | Updated 11 minutes ago

Mostly Cloudy
Mostly Cloudy
10 °F
Feels Like 1 °F
N
6
Wind Variable Wind from SSW

Today
High -- | Low -- °F
--% Chance of Precip.
Yesterday
High -- | Low -- °F
Precip. -- in
Pressure 29.94 in
Visibility 7.0 miles
Clouds Few 1500 ft
Mostly Cloudy 3700 ft
Overcast 7000 ft
Windchill 1 °F
Dew Point 7 °F
Humidity 85%
Rainfall 0.00 in
Snow Depth Not available.
7:12 AM 5:59 PM
Waxing Crescent, 37% visible
METAR KWYS 220435Z AUTO 21005KT 7SM FEW015 BKN037 OVC070 M12/M14 A2994 RMK AO2
Pressure 29.94 in
Visibility 7.0 miles
Clouds Few 1500 ft
Mostly Cloudy 3700 ft
Overcast 7000 ft
Windchill 1 °F
Dew Point 7 °F
Humidity 85%
Rainfall 0.00 in
Snow Depth Not available.
7:12 AM 5:59 PM
Waxing Crescent, 37% visible
METAR KWYS 220435Z AUTO 21005KT 7SM FEW015 BKN037 OVC070 M12/M14 A2994 RMK AO2

Get Severe Weather Alerts

Thanks for signing up!

Be on the lookout for a verification email in your inbox.

You'll start receiving the daily forecast at 6 AM.

×

10-Day Weather Forecast

Almanac

Astronomy

Feb. 21, 2018 Rise Set
Actual Time
Civil Twilight
Nautical Twilight
Astronomical Twilight
Moon
Length of Visible Light
Length of Day
Tomorrow will be .
, % of the Moon is Illuminated

Today's Extremes

State Highs State Lows

Community

WunderPhotos

Category 6

Welcome to Category 6. This is the collective home for Weather Underground's featured writeups by Dr. Jeff Masters (right), Bob Henson (left), Chris Burt, and other regular contributors.

Nearby

Air Quality

  Air Quality AQ Index Pollutant
Not available.

Snow Depth

Station Depth Elevation

Earthquake Activity

City Distance Mag. Time & Date
Minimum magnitude displayed is 2.5.

Coastal Water Temperatures

Place Temperature

Stations

Nearby Weather Stations

Station Location Temp. Windchill Dew Point Humidity Wind Precip. Elev Updated Type
                   

Watches & Warnings

There are currently no watches in effect.